sensor_id;sensor_type;location;lat;lon;timestamp;temperature;humidity
23721;DHT22;42950;52.134;5.578;2023-04-24T00:00:04;9.80;99.90
23721;DHT22;42950;52.134;5.578;2023-04-24T00:02:37;9.80;99.90
23721;DHT22;42950;52.134;5.578;2023-04-24T00:05:06;9.80;99.90
23721;DHT22;42950;52.134;5.578;2023-04-24T00:07:32;9.70;99.90
23721;DHT22;42950;52.134;5.578;2023-04-24T00:09:58;9.80;99.90
23721;DHT22;42950;52.134;5.578;2023-04-24T00:12:25;9.70;99.90
23721;DHT22;42950;52.134;5.578;2023-04-24T00:14:50;9.70;99.90
23721;DHT22;42950;52.134;5.578;2023-04-24T00:17:17;9.80;99.90
23721;DHT22;42950;52.134;5.578;2023-04-24T00:19:46;9.80;99.90
23721;DHT22;42950;52.134;5.578;2023-04-24T00:22:12;9.80;99.90
23721;DHT22;42950;52.134;5.578;2023-04-24T00:24:40;9.80;99.90
23721;DHT22;42950;52.134;5.578;2023-04-24T00:27:05;9.80;99.90
23721;DHT22;42950;52.134;5.578;2023-04-24T00:29:31;9.80;99.90
23721;DHT22;42950;52.134;5.578;2023-04-24T00:31:58;9.80;99.90
23721;DHT22;42950;52.134;5.578;2023-04-24T00:34:24;9.80;99.90
23721;DHT22;42950;52.134;5.578;2023-04-24T00:36:50;9.80;99.90
23721;DHT22;42950;52.134;5.578;2023-04-24T00:39:20;9.80;99.90
23721;DHT22;42950;52.134;5.578;2023-04-24T00:41:48;9.80;99.90
23721;DHT22;42950;52.134;5.578;2023-04-24T00:44:15;9.80;99.90
23721;DHT22;42950;52.134;5.578;2023-04-24T00:46:41;9.70;99.90
23721;DHT22;42950;52.134;5.578;2023-04-24T00:49:07;9.70;99.90
23721;DHT22;42950;52.134;5.578;2023-04-24T00:51:34;9.70;99.90
23721;DHT22;42950;52.134;5.578;2023-04-24T00:54:01;9.70;99.90
23721;DHT22;42950;52.134;5.578;2023-04-24T00:56:27;9.70;99.90
23721;DHT22;42950;52.134;5.578;2023-04-24T00:58:53;9.70;99.90
23721;DHT22;42950;52.134;5.578;2023-04-24T01:01:20;9.70;99.90
23721;DHT22;42950;52.134;5.578;2023-04-24T01:03:50;9.70;99.90
23721;DHT22;42950;52.134;5.578;2023-04-24T01:06:17;9.70;99.90
23721;DHT22;42950;52.134;5.578;2023-04-24T01:08:46;9.70;99.90
23721;DHT22;42950;52.134;5.578;2023-04-24T01:11:13;9.70;99.90
23721;DHT22;42950;52.134;5.578;2023-04-24T01:13:39;9.70;99.90
23721;DHT22;42950;52.134;5.578;2023-04-24T01:16:05;9.70;99.90
23721;DHT22;42950;52.134;5.578;2023-04-24T01:18:32;9.70;99.90
23721;DHT22;42950;52.134;5.578;2023-04-24T01:20:59;9.70;99.90
23721;DHT22;42950;52.134;5.578;2023-04-24T01:23:25;9.70;99.90
23721;DHT22;42950;52.134;5.578;2023-04-24T01:25:52;9.70;99.90
23721;DHT22;42950;52.134;5.578;2023-04-24T01:28:18;9.70;99.90
23721;DHT22;42950;52.134;5.578;2023-04-24T01:30:44;9.70;99.90
23721;DHT22;42950;52.134;5.578;2023-04-24T01:33:12;9.70;99.90
23721;DHT22;42950;52.134;5.578;2023-04-24T01:35:38;9.70;99.90
23721;DHT22;42950;52.134;5.578;2023-04-24T01:38:04;9.70;99.90
23721;DHT22;42950;52.134;5.578;2023-04-24T01:40:32;9.70;99.90
23721;DHT22;42950;52.134;5.578;2023-04-24T01:42:59;9.70;99.90
23721;DHT22;42950;52.134;5.578;2023-04-24T01:45:24;9.70;99.90
23721;DHT22;42950;52.134;5.578;2023-04-24T01:47:50;9.70;99.90
23721;DHT22;42950;52.134;5.578;2023-04-24T01:50:17;9.70;99.90
23721;DHT22;42950;52.134;5.578;2023-04-24T01:52:42;9.70;99.90
23721;DHT22;42950;52.134;5.578;2023-04-24T01:55:14;9.80;99.90
23721;DHT22;42950;52.134;5.578;2023-04-24T01:57:40;9.80;99.90
23721;DHT22;42950;52.134;5.578;2023-04-24T02:00:06;9.80;99.90
23721;DHT22;42950;52.134;5.578;2023-04-24T02:02:32;9.80;99.90
23721;DHT22;42950;52.134;5.578;2023-04-24T02:04:59;9.80;99.90
23721;DHT22;42950;52.134;5.578;2023-04-24T02:07:24;9.80;99.90
23721;DHT22;42950;52.134;5.578;2023-04-24T02:09:50;9.80;99.90
23721;DHT22;42950;52.134;5.578;2023-04-24T02:12:16;9.90;99.90
23721;DHT22;42950;52.134;5.578;2023-04-24T02:14:43;9.80;99.90
23721;DHT22;42950;52.134;5.578;2023-04-24T02:17:09;9.90;99.90
23721;DHT22;42950;52.134;5.578;2023-04-24T02:19:35;9.90;99.90
23721;DHT22;42950;52.134;5.578;2023-04-24T02:22:00;9.80;99.90
23721;DHT22;42950;52.134;5.578;2023-04-24T02:24:26;9.80;99.90
23721;DHT22;42950;52.134;5.578;2023-04-24T02:26:52;9.80;99.90
23721;DHT22;42950;52.134;5.578;2023-04-24T02:29:17;9.80;99.90
23721;DHT22;42950;52.134;5.578;2023-04-24T02:31:44;9.80;99.90
23721;DHT22;42950;52.134;5.578;2023-04-24T02:34:09;9.80;99.90
23721;DHT22;42950;52.134;5.578;2023-04-24T02:36:35;9.80;99.90
23721;DHT22;42950;52.134;5.578;2023-04-24T02:39:01;9.80;99.90
23721;DHT22;42950;52.134;5.578;2023-04-24T02:41:27;9.80;99.90
23721;DHT22;42950;52.134;5.578;2023-04-24T02:43:58;9.80;99.90
23721;DHT22;42950;52.134;5.578;2023-04-24T02:46:24;9.80;99.90
23721;DHT22;42950;52.134;5.578;2023-04-24T02:48:50;9.80;99.90
23721;DHT22;42950;52.134;5.578;2023-04-24T02:51:15;9.80;99.90
23721;DHT22;42950;52.134;5.578;2023-04-24T02:53:42;9.80;99.90
23721;DHT22;42950;52.134;5.578;2023-04-24T02:56:10;9.80;99.90
23721;DHT22;42950;52.134;5.578;2023-04-24T02:58:38;9.80;99.90
23721;DHT22;42950;52.134;5.578;2023-04-24T03:01:03;9.80;99.90
23721;DHT22;42950;52.134;5.578;2023-04-24T03:03:29;9.80;99.90
23721;DHT22;42950;52.134;5.578;2023-04-24T03:05:55;9.80;99.90
23721;DHT22;42950;52.134;5.578;2023-04-24T03:08:23;9.90;99.90
23721;DHT22;42950;52.134;5.578;2023-04-24T03:10:48;9.90;99.90
23721;DHT22;42950;52.134;5.578;2023-04-24T03:13:16;9.90;99.90
23721;DHT22;42950;52.134;5.578;2023-04-24T03:15:41;9.90;99.90
23721;DHT22;42950;52.134;5.578;2023-04-24T03:18:07;9.80;99.90
23721;DHT22;42950;52.134;5.578;2023-04-24T03:20:34;9.80;99.90
23721;DHT22;42950;52.134;5.578;2023-04-24T03:23:00;9.80;99.90
23721;DHT22;42950;52.134;5.578;2023-04-24T03:25:26;9.90;99.90
23721;DHT22;42950;52.134;5.578;2023-04-24T03:27:52;9.90;99.90
23721;DHT22;42950;52.134;5.578;2023-04-24T03:30:19;9.90;99.90
23721;DHT22;42950;52.134;5.578;2023-04-24T03:32:46;9.90;99.90
23721;DHT22;42950;52.134;5.578;2023-04-24T03:35:11;9.80;99.90
23721;DHT22;42950;52.134;5.578;2023-04-24T03:37:37;9.80;99.90
23721;DHT22;42950;52.134;5.578;2023-04-24T03:40:03;9.80;99.90
23721;DHT22;42950;52.134;5.578;2023-04-24T03:42:30;9.80;99.90
23721;DHT22;42950;52.134;5.578;2023-04-24T03:44:55;9.80;99.90
23721;DHT22;42950;52.134;5.578;2023-04-24T03:47:21;9.80;99.90
23721;DHT22;42950;52.134;5.578;2023-04-24T03:49:49;9.80;99.90
23721;DHT22;42950;52.134;5.578;2023-04-24T03:52:14;9.80;99.90
23721;DHT22;42950;52.134;5.578;2023-04-24T03:54:40;9.80;99.90
23721;DHT22;42950;52.134;5.578;2023-04-24T03:57:06;9.80;99.90
23721;DHT22;42950;52.134;5.578;2023-04-24T03:59:31;9.80;99.90
23721;DHT22;42950;52.134;5.578;2023-04-24T04:01:58;9.80;99.90
23721;DHT22;42950;52.134;5.578;2023-04-24T04:04:23;9.80;99.90
23721;DHT22;42950;52.134;5.578;2023-04-24T04:06:49;9.80;99.90
23721;DHT22;42950;52.134;5.578;2023-04-24T04:09:15;9.90;99.90
23721;DHT22;42950;52.134;5.578;2023-04-24T04:11:41;9.90;99.90
23721;DHT22;42950;52.134;5.578;2023-04-24T04:14:13;9.90;99.90
23721;DHT22;42950;52.134;5.578;2023-04-24T04:16:40;9.90;99.90
23721;DHT22;42950;52.134;5.578;2023-04-24T04:19:05;9.80;99.90
23721;DHT22;42950;52.134;5.578;2023-04-24T04:21:31;9.80;99.90
23721;DHT22;42950;52.134;5.578;2023-04-24T04:23:57;9.80;99.90
23721;DHT22;42950;52.134;5.578;2023-04-24T04:26:24;9.70;99.90
23721;DHT22;42950;52.134;5.578;2023-04-24T04:28:51;9.70;99.90
23721;DHT22;42950;52.134;5.578;2023-04-24T04:31:17;9.70;99.90
23721;DHT22;42950;52.134;5.578;2023-04-24T04:33:43;9.60;99.90
23721;DHT22;42950;52.134;5.578;2023-04-24T04:36:08;9.70;99.90
23721;DHT22;42950;52.134;5.578;2023-04-24T04:38:34;9.70;99.90
23721;DHT22;42950;52.134;5.578;2023-04-24T04:41:00;9.80;99.90
23721;DHT22;42950;52.134;5.578;2023-04-24T04:43:26;9.80;99.90
23721;DHT22;42950;52.134;5.578;2023-04-24T04:45:54;9.80;99.90
23721;DHT22;42950;52.134;5.578;2023-04-24T04:48:21;9.70;99.90
23721;DHT22;42950;52.134;5.578;2023-04-24T04:50:48;9.80;99.90
23721;DHT22;42950;52.134;5.578;2023-04-24T04:53:14;9.80;99.90
23721;DHT22;42950;52.134;5.578;2023-04-24T04:55:40;9.80;99.90
23721;DHT22;42950;52.134;5.578;2023-04-24T04:58:06;9.80;99.90
23721;DHT22;42950;52.134;5.578;2023-04-24T05:00:32;9.80;99.90
23721;DHT22;42950;52.134;5.578;2023-04-24T05:03:02;9.90;99.90
23721;DHT22;42950;52.134;5.578;2023-04-24T05:05:28;9.90;99.90
23721;DHT22;42950;52.134;5.578;2023-04-24T05:07:54;9.80;99.90
23721;DHT22;42950;52.134;5.578;2023-04-24T05:10:22;9.80;99.90
23721;DHT22;42950;52.134;5.578;2023-04-24T05:12:47;9.80;99.90
23721;DHT22;42950;52.134;5.578;2023-04-24T05:15:15;9.90;99.90
23721;DHT22;42950;52.134;5.578;2023-04-24T05:17:40;9.90;99.90
23721;DHT22;42950;52.134;5.578;2023-04-24T05:20:07;10.00;99.90
23721;DHT22;42950;52.134;5.578;2023-04-24T05:22:32;9.90;99.90
23721;DHT22;42950;52.134;5.578;2023-04-24T05:24:58;9.90;99.90
23721;DHT22;42950;52.134;5.578;2023-04-24T05:27:24;9.90;99.90
23721;DHT22;42950;52.134;5.578;2023-04-24T05:29:50;9.80;99.90
23721;DHT22;42950;52.134;5.578;2023-04-24T05:32:16;9.80;99.90
23721;DHT22;42950;52.134;5.578;2023-04-24T05:34:42;9.80;99.90
23721;DHT22;42950;52.134;5.578;2023-04-24T05:37:07;9.80;99.90
23721;DHT22;42950;52.134;5.578;2023-04-24T05:39:35;9.90;99.90
23721;DHT22;42950;52.134;5.578;2023-04-24T05:42:02;9.90;99.90
23721;DHT22;42950;52.134;5.578;2023-04-24T05:44:28;9.90;99.90
23721;DHT22;42950;52.134;5.578;2023-04-24T05:46:55;10.00;99.90
23721;DHT22;42950;52.134;5.578;2023-04-24T05:49:22;10.10;99.90
23721;DHT22;42950;52.134;5.578;2023-04-24T05:51:50;10.00;99.90
23721;DHT22;42950;52.134;5.578;2023-04-24T05:54:16;10.00;99.90
23721;DHT22;42950;52.134;5.578;2023-04-24T05:56:41;10.00;99.90
23721;DHT22;42950;52.134;5.578;2023-04-24T05:59:08;10.00;99.90
23721;DHT22;42950;52.134;5.578;2023-04-24T06:01:34;10.00;99.90
23721;DHT22;42950;52.134;5.578;2023-04-24T06:04:03;9.90;99.90
23721;DHT22;42950;52.134;5.578;2023-04-24T06:06:28;9.90;99.90
23721;DHT22;42950;52.134;5.578;2023-04-24T06:08:54;9.90;99.90
23721;DHT22;42950;52.134;5.578;2023-04-24T06:11:20;9.90;99.90
23721;DHT22;42950;52.134;5.578;2023-04-24T06:13:46;9.90;99.90
23721;DHT22;42950;52.134;5.578;2023-04-24T06:16:12;10.00;99.90
23721;DHT22;42950;52.134;5.578;2023-04-24T06:18:37;10.00;99.90
23721;DHT22;42950;52.134;5.578;2023-04-24T06:21:03;9.90;99.90
23721;DHT22;42950;52.134;5.578;2023-04-24T06:23:29;9.90;99.90
23721;DHT22;42950;52.134;5.578;2023-04-24T06:25:57;9.80;99.90
23721;DHT22;42950;52.134;5.578;2023-04-24T06:28:23;9.80;99.90
23721;DHT22;42950;52.134;5.578;2023-04-24T06:30:48;9.80;99.90
23721;DHT22;42950;52.134;5.578;2023-04-24T06:33:14;9.80;99.90
23721;DHT22;42950;52.134;5.578;2023-04-24T06:35:40;9.80;99.90
23721;DHT22;42950;52.134;5.578;2023-04-24T06:38:05;9.70;99.90
23721;DHT22;42950;52.134;5.578;2023-04-24T06:40:31;9.60;99.90
23721;DHT22;42950;52.134;5.578;2023-04-24T06:42:57;9.70;99.90
23721;DHT22;42950;52.134;5.578;2023-04-24T06:45:23;9.60;99.90
23721;DHT22;42950;52.134;5.578;2023-04-24T06:47:49;9.60;99.90
23721;DHT22;42950;52.134;5.578;2023-04-24T06:50:14;9.60;99.90
23721;DHT22;42950;52.134;5.578;2023-04-24T06:52:40;9.50;99.90
23721;DHT22;42950;52.134;5.578;2023-04-24T06:55:06;9.50;99.90
23721;DHT22;42950;52.134;5.578;2023-04-24T06:57:32;9.50;99.90
23721;DHT22;42950;52.134;5.578;2023-04-24T06:59:58;9.40;99.90
23721;DHT22;42950;52.134;5.578;2023-04-24T07:02:24;9.30;99.90
23721;DHT22;42950;52.134;5.578;2023-04-24T07:04:50;9.30;99.90
23721;DHT22;42950;52.134;5.578;2023-04-24T07:07:16;9.30;99.90
23721;DHT22;42950;52.134;5.578;2023-04-24T07:09:43;9.20;99.90
23721;DHT22;42950;52.134;5.578;2023-04-24T07:12:11;9.20;99.90
23721;DHT22;42950;52.134;5.578;2023-04-24T07:14:37;9.20;99.90
23721;DHT22;42950;52.134;5.578;2023-04-24T07:17:04;9.20;99.90
23721;DHT22;42950;52.134;5.578;2023-04-24T07:19:31;9.20;99.90
23721;DHT22;42950;52.134;5.578;2023-04-24T07:21:57;9.10;99.90
23721;DHT22;42950;52.134;5.578;2023-04-24T07:24:24;9.20;99.90
23721;DHT22;42950;52.134;5.578;2023-04-24T07:26:51;9.10;99.90
23721;DHT22;42950;52.134;5.578;2023-04-24T07:29:18;9.10;99.90
23721;DHT22;42950;52.134;5.578;2023-04-24T07:31:45;9.10;99.90
23721;DHT22;42950;52.134;5.578;2023-04-24T07:34:11;9.10;99.90
23721;DHT22;42950;52.134;5.578;2023-04-24T07:36:37;9.10;99.90
23721;DHT22;42950;52.134;5.578;2023-04-24T07:39:04;9.00;99.90
23721;DHT22;42950;52.134;5.578;2023-04-24T07:41:30;9.00;99.90
23721;DHT22;42950;52.134;5.578;2023-04-24T07:43:58;9.00;99.90
23721;DHT22;42950;52.134;5.578;2023-04-24T07:46:24;8.90;99.90
23721;DHT22;42950;52.134;5.578;2023-04-24T07:48:50;8.90;99.90
23721;DHT22;42950;52.134;5.578;2023-04-24T07:51:16;8.90;99.90
23721;DHT22;42950;52.134;5.578;2023-04-24T07:53:43;8.90;99.90
23721;DHT22;42950;52.134;5.578;2023-04-24T07:56:08;8.90;99.90
23721;DHT22;42950;52.134;5.578;2023-04-24T07:58:35;8.80;99.90
23721;DHT22;42950;52.134;5.578;2023-04-24T08:01:00;8.90;99.90
23721;DHT22;42950;52.134;5.578;2023-04-24T08:03:26;8.90;99.90
23721;DHT22;42950;52.134;5.578;2023-04-24T08:05:55;8.90;99.90
23721;DHT22;42950;52.134;5.578;2023-04-24T08:08:21;9.00;99.90
23721;DHT22;42950;52.134;5.578;2023-04-24T08:10:48;8.90;99.90
23721;DHT22;42950;52.134;5.578;2023-04-24T08:13:14;8.90;99.90
23721;DHT22;42950;52.134;5.578;2023-04-24T08:15:40;8.90;99.90
23721;DHT22;42950;52.134;5.578;2023-04-24T08:18:06;9.00;99.90
23721;DHT22;42950;52.134;5.578;2023-04-24T08:20:31;9.00;99.90
23721;DHT22;42950;52.134;5.578;2023-04-24T08:22:57;9.00;99.90
23721;DHT22;42950;52.134;5.578;2023-04-24T08:25:23;9.00;99.90
23721;DHT22;42950;52.134;5.578;2023-04-24T08:27:51;9.00;99.90
23721;DHT22;42950;52.134;5.578;2023-04-24T08:30:19;9.00;99.90
23721;DHT22;42950;52.134;5.578;2023-04-24T08:32:44;8.90;99.90
23721;DHT22;42950;52.134;5.578;2023-04-24T08:35:10;8.90;99.90
23721;DHT22;42950;52.134;5.578;2023-04-24T08:37:36;8.90;99.90
23721;DHT22;42950;52.134;5.578;2023-04-24T08:40:11;8.90;99.90
23721;DHT22;42950;52.134;5.578;2023-04-24T08:42:39;8.80;99.90
23721;DHT22;42950;52.134;5.578;2023-04-24T08:45:05;8.80;99.90
23721;DHT22;42950;52.134;5.578;2023-04-24T08:47:38;8.70;99.90
23721;DHT22;42950;52.134;5.578;2023-04-24T08:50:05;8.70;99.90
23721;DHT22;42950;52.134;5.578;2023-04-24T08:52:35;8.70;99.90
23721;DHT22;42950;52.134;5.578;2023-04-24T08:55:01;8.50;99.90
23721;DHT22;42950;52.134;5.578;2023-04-24T08:57:27;8.50;99.90
23721;DHT22;42950;52.134;5.578;2023-04-24T08:59:54;8.60;99.90
23721;DHT22;42950;52.134;5.578;2023-04-24T09:02:21;8.60;99.90
23721;DHT22;42950;52.134;5.578;2023-04-24T09:04:47;8.60;99.90
23721;DHT22;42950;52.134;5.578;2023-04-24T09:07:16;8.60;99.90
23721;DHT22;42950;52.134;5.578;2023-04-24T09:09:42;8.70;99.90
23721;DHT22;42950;52.134;5.578;2023-04-24T09:12:08;8.60;99.90
23721;DHT22;42950;52.134;5.578;2023-04-24T09:14:36;8.70;99.90
23721;DHT22;42950;52.134;5.578;2023-04-24T09:17:06;8.70;99.90
23721;DHT22;42950;52.134;5.578;2023-04-24T09:19:32;8.80;99.90
23721;DHT22;42950;52.134;5.578;2023-04-24T09:21:57;8.80;99.90
23721;DHT22;42950;52.134;5.578;2023-04-24T09:24:23;8.80;99.90
23721;DHT22;42950;52.134;5.578;2023-04-24T09:26:55;8.90;99.90
23721;DHT22;42950;52.134;5.578;2023-04-24T09:29:22;9.00;99.90
23721;DHT22;42950;52.134;5.578;2023-04-24T09:31:48;9.10;99.90
23721;DHT22;42950;52.134;5.578;2023-04-24T09:34:14;9.20;99.90
23721;DHT22;42950;52.134;5.578;2023-04-24T09:36:43;9.20;99.90
23721;DHT22;42950;52.134;5.578;2023-04-24T09:39:12;9.30;99.90
23721;DHT22;42950;52.134;5.578;2023-04-24T09:41:53;9.20;99.90
23721;DHT22;42950;52.134;5.578;2023-04-24T09:44:29;9.30;99.90
23721;DHT22;42950;52.134;5.578;2023-04-24T09:46:58;9.30;99.90
23721;DHT22;42950;52.134;5.578;2023-04-24T09:49:29;9.40;99.90
23721;DHT22;42950;52.134;5.578;2023-04-24T09:52:09;9.30;99.90
23721;DHT22;42950;52.134;5.578;2023-04-24T09:54:36;9.50;99.90
23721;DHT22;42950;52.134;5.578;2023-04-24T09:57:03;9.50;99.90
23721;DHT22;42950;52.134;5.578;2023-04-24T09:59:29;9.60;99.90
23721;DHT22;42950;52.134;5.578;2023-04-24T10:01:59;9.60;99.90
23721;DHT22;42950;52.134;5.578;2023-04-24T10:04:27;9.70;99.90
23721;DHT22;42950;52.134;5.578;2023-04-24T10:06:55;9.60;99.90
23721;DHT22;42950;52.134;5.578;2023-04-24T10:09:26;9.60;99.90
23721;DHT22;42950;52.134;5.578;2023-04-24T10:11:53;9.50;99.90
23721;DHT22;42950;52.134;5.578;2023-04-24T10:14:22;9.50;99.90
23721;DHT22;42950;52.134;5.578;2023-04-24T10:16:49;9.60;99.90
23721;DHT22;42950;52.134;5.578;2023-04-24T10:19:16;9.60;99.90
23721;DHT22;42950;52.134;5.578;2023-04-24T10:21:44;9.80;99.90
23721;DHT22;42950;52.134;5.578;2023-04-24T10:24:18;9.80;99.90
23721;DHT22;42950;52.134;5.578;2023-04-24T10:26:46;9.90;99.90
23721;DHT22;42950;52.134;5.578;2023-04-24T10:29:15;10.00;99.90
23721;DHT22;42950;52.134;5.578;2023-04-24T10:31:41;9.90;99.90
23721;DHT22;42950;52.134;5.578;2023-04-24T10:34:08;9.80;99.90
23721;DHT22;42950;52.134;5.578;2023-04-24T10:36:36;9.80;99.90
23721;DHT22;42950;52.134;5.578;2023-04-24T10:39:08;9.80;99.90
23721;DHT22;42950;52.134;5.578;2023-04-24T10:41:39;9.80;99.90
23721;DHT22;42950;52.134;5.578;2023-04-24T10:44:09;9.90;99.90
23721;DHT22;42950;52.134;5.578;2023-04-24T10:46:36;10.10;99.90
23721;DHT22;42950;52.134;5.578;2023-04-24T10:49:06;10.30;99.90
23721;DHT22;42950;52.134;5.578;2023-04-24T10:51:45;10.40;99.90
23721;DHT22;42950;52.134;5.578;2023-04-24T10:54:27;10.40;99.90
23721;DHT22;42950;52.134;5.578;2023-04-24T10:57:34;10.60;99.90
23721;DHT22;42950;52.134;5.578;2023-04-24T11:00:18;10.60;99.90
23721;DHT22;42950;52.134;5.578;2023-04-24T11:02:46;10.60;99.90
23721;DHT22;42950;52.134;5.578;2023-04-24T11:05:19;10.60;99.90
23721;DHT22;42950;52.134;5.578;2023-04-24T11:10:42;10.40;99.90
23721;DHT22;42950;52.134;5.578;2023-04-24T11:13:08;10.30;99.90
23721;DHT22;42950;52.134;5.578;2023-04-24T11:15:34;10.10;99.90
23721;DHT22;42950;52.134;5.578;2023-04-24T11:18:00;10.10;99.90
23721;DHT22;42950;52.134;5.578;2023-04-24T11:20:25;9.90;99.90
23721;DHT22;42950;52.134;5.578;2023-04-24T11:22:53;9.90;99.90
23721;DHT22;42950;52.134;5.578;2023-04-24T11:25:21;9.80;99.90
23721;DHT22;42950;52.134;5.578;2023-04-24T11:27:47;9.70;99.90
23721;DHT22;42950;52.134;5.578;2023-04-24T11:30:19;9.50;99.90
23721;DHT22;42950;52.134;5.578;2023-04-24T11:32:48;9.60;99.90
23721;DHT22;42950;52.134;5.578;2023-04-24T11:35:20;9.60;99.90
23721;DHT22;42950;52.134;5.578;2023-04-24T11:37:51;9.60;99.90
23721;DHT22;42950;52.134;5.578;2023-04-24T11:40:18;9.60;99.90
23721;DHT22;42950;52.134;5.578;2023-04-24T11:42:46;9.60;99.90
23721;DHT22;42950;52.134;5.578;2023-04-24T11:45:15;9.80;99.90
23721;DHT22;42950;52.134;5.578;2023-04-24T11:47:42;9.90;99.90
23721;DHT22;42950;52.134;5.578;2023-04-24T11:50:11;10.10;99.90
23721;DHT22;42950;52.134;5.578;2023-04-24T11:52:41;10.50;99.90
23721;DHT22;42950;52.134;5.578;2023-04-24T11:57:46;10.50;99.90
23721;DHT22;42950;52.134;5.578;2023-04-24T12:00:16;10.50;99.90
23721;DHT22;42950;52.134;5.578;2023-04-24T12:02:42;10.60;99.90
23721;DHT22;42950;52.134;5.578;2023-04-24T12:05:08;10.60;99.90
23721;DHT22;42950;52.134;5.578;2023-04-24T12:07:41;10.70;99.90
23721;DHT22;42950;52.134;5.578;2023-04-24T12:10:10;10.80;99.90
23721;DHT22;42950;52.134;5.578;2023-04-24T12:12:35;11.00;99.90
23721;DHT22;42950;52.134;5.578;2023-04-24T12:15:01;11.20;99.90
23721;DHT22;42950;52.134;5.578;2023-04-24T12:17:33;11.30;99.90
23721;DHT22;42950;52.134;5.578;2023-04-24T12:20:07;11.50;99.90
23721;DHT22;42950;52.134;5.578;2023-04-24T12:25:19;11.50;99.90
23721;DHT22;42950;52.134;5.578;2023-04-24T12:27:46;11.30;99.90
23721;DHT22;42950;52.134;5.578;2023-04-24T12:30:15;11.00;99.90
23721;DHT22;42950;52.134;5.578;2023-04-24T12:32:48;10.90;99.90
23721;DHT22;42950;52.134;5.578;2023-04-24T12:35:19;10.70;99.90
23721;DHT22;42950;52.134;5.578;2023-04-24T12:37:46;10.60;99.90
23721;DHT22;42950;52.134;5.578;2023-04-24T12:40:13;10.50;99.90
23721;DHT22;42950;52.134;5.578;2023-04-24T12:42:47;10.50;99.90
23721;DHT22;42950;52.134;5.578;2023-04-24T12:45:14;10.50;99.90
23721;DHT22;42950;52.134;5.578;2023-04-24T12:47:41;10.50;99.90
23721;DHT22;42950;52.134;5.578;2023-04-24T12:50:08;10.50;99.90
23721;DHT22;42950;52.134;5.578;2023-04-24T12:52:35;10.40;99.90
23721;DHT22;42950;52.134;5.578;2023-04-24T12:55:00;10.40;99.90
23721;DHT22;42950;52.134;5.578;2023-04-24T12:57:28;10.40;99.90
23721;DHT22;42950;52.134;5.578;2023-04-24T12:59:55;10.40;99.90
23721;DHT22;42950;52.134;5.578;2023-04-24T13:02:26;10.50;99.90
23721;DHT22;42950;52.134;5.578;2023-04-24T13:04:52;10.50;99.90
23721;DHT22;42950;52.134;5.578;2023-04-24T13:07:19;10.50;99.90
23721;DHT22;42950;52.134;5.578;2023-04-24T13:09:45;10.50;99.90
23721;DHT22;42950;52.134;5.578;2023-04-24T13:12:11;10.50;99.90
23721;DHT22;42950;52.134;5.578;2023-04-24T13:14:37;10.30;99.90
23721;DHT22;42950;52.134;5.578;2023-04-24T13:17:03;10.10;99.90
23721;DHT22;42950;52.134;5.578;2023-04-24T13:19:29;9.80;99.90
23721;DHT22;42950;52.134;5.578;2023-04-24T13:21:56;9.70;99.90
23721;DHT22;42950;52.134;5.578;2023-04-24T13:24:25;9.70;99.90
23721;DHT22;42950;52.134;5.578;2023-04-24T13:26:51;9.70;99.90
23721;DHT22;42950;52.134;5.578;2023-04-24T13:29:17;9.80;99.90
23721;DHT22;42950;52.134;5.578;2023-04-24T13:31:43;9.90;99.90
23721;DHT22;42950;52.134;5.578;2023-04-24T13:34:09;10.10;99.90
23721;DHT22;42950;52.134;5.578;2023-04-24T13:36:34;10.30;99.90
23721;DHT22;42950;52.134;5.578;2023-04-24T13:39:01;10.40;99.90
23721;DHT22;42950;52.134;5.578;2023-04-24T13:41:27;10.40;99.90
23721;DHT22;42950;52.134;5.578;2023-04-24T13:43:52;10.60;99.90
23721;DHT22;42950;52.134;5.578;2023-04-24T13:46:18;11.00;99.90
23721;DHT22;42950;52.134;5.578;2023-04-24T13:48:43;11.40;99.90
23721;DHT22;42950;52.134;5.578;2023-04-24T13:51:10;11.50;99.90
23721;DHT22;42950;52.134;5.578;2023-04-24T13:53:36;11.30;99.90
23721;DHT22;42950;52.134;5.578;2023-04-24T13:56:04;11.20;99.90
23721;DHT22;42950;52.134;5.578;2023-04-24T13:58:30;11.10;99.90
23721;DHT22;42950;52.134;5.578;2023-04-24T14:00:56;11.00;99.90
23721;DHT22;42950;52.134;5.578;2023-04-24T14:03:21;10.90;99.90
23721;DHT22;42950;52.134;5.578;2023-04-24T14:05:47;10.80;99.90
23721;DHT22;42950;52.134;5.578;2023-04-24T14:08:12;10.70;99.90
23721;DHT22;42950;52.134;5.578;2023-04-24T14:10:38;10.60;99.90
23721;DHT22;42950;52.134;5.578;2023-04-24T14:13:04;10.70;99.90
23721;DHT22;42950;52.134;5.578;2023-04-24T14:15:31;10.60;99.90
23721;DHT22;42950;52.134;5.578;2023-04-24T14:17:56;10.70;99.90
23721;DHT22;42950;52.134;5.578;2023-04-24T14:20:22;10.90;99.90
23721;DHT22;42950;52.134;5.578;2023-04-24T14:22:48;11.00;99.90
23721;DHT22;42950;52.134;5.578;2023-04-24T14:25:14;10.90;99.90
23721;DHT22;42950;52.134;5.578;2023-04-24T14:27:40;11.00;99.90
23721;DHT22;42950;52.134;5.578;2023-04-24T14:30:07;11.10;99.90
23721;DHT22;42950;52.134;5.578;2023-04-24T14:32:32;11.10;99.90
23721;DHT22;42950;52.134;5.578;2023-04-24T14:34:58;11.10;99.90
23721;DHT22;42950;52.134;5.578;2023-04-24T14:37:24;11.10;99.90
23721;DHT22;42950;52.134;5.578;2023-04-24T14:39:49;11.00;99.90
23721;DHT22;42950;52.134;5.578;2023-04-24T14:42:15;11.00;99.90
23721;DHT22;42950;52.134;5.578;2023-04-24T14:44:42;10.90;99.90
23721;DHT22;42950;52.134;5.578;2023-04-24T14:47:07;10.80;99.90
23721;DHT22;42950;52.134;5.578;2023-04-24T14:49:33;10.70;99.90
23721;DHT22;42950;52.134;5.578;2023-04-24T14:51:59;10.70;99.90
23721;DHT22;42950;52.134;5.578;2023-04-24T14:54:24;10.80;99.90
23721;DHT22;42950;52.134;5.578;2023-04-24T14:56:50;10.80;99.90
23721;DHT22;42950;52.134;5.578;2023-04-24T14:59:16;10.80;99.90
23721;DHT22;42950;52.134;5.578;2023-04-24T15:01:42;10.70;99.90
23721;DHT22;42950;52.134;5.578;2023-04-24T15:04:07;10.70;99.90
23721;DHT22;42950;52.134;5.578;2023-04-24T15:06:33;10.70;99.90
23721;DHT22;42950;52.134;5.578;2023-04-24T15:08:58;10.60;99.90
23721;DHT22;42950;52.134;5.578;2023-04-24T15:11:24;10.40;99.90
23721;DHT22;42950;52.134;5.578;2023-04-24T15:13:50;10.30;99.90
23721;DHT22;42950;52.134;5.578;2023-04-24T15:16:16;10.30;99.90
23721;DHT22;42950;52.134;5.578;2023-04-24T15:18:41;10.30;99.90
23721;DHT22;42950;52.134;5.578;2023-04-24T15:21:07;10.30;99.90
23721;DHT22;42950;52.134;5.578;2023-04-24T15:23:32;10.20;99.90
23721;DHT22;42950;52.134;5.578;2023-04-24T15:25:58;10.30;99.90
23721;DHT22;42950;52.134;5.578;2023-04-24T15:28:24;10.20;99.90
23721;DHT22;42950;52.134;5.578;2023-04-24T15:30:50;10.10;99.90
23721;DHT22;42950;52.134;5.578;2023-04-24T15:33:16;9.90;99.90
23721;DHT22;42950;52.134;5.578;2023-04-24T15:35:41;9.80;99.90
23721;DHT22;42950;52.134;5.578;2023-04-24T15:38:07;10.00;99.90
23721;DHT22;42950;52.134;5.578;2023-04-24T15:40:33;9.90;99.90
23721;DHT22;42950;52.134;5.578;2023-04-24T15:42:58;9.90;99.90
23721;DHT22;42950;52.134;5.578;2023-04-24T15:45:24;10.10;99.90
23721;DHT22;42950;52.134;5.578;2023-04-24T15:47:50;10.10;99.90